Time;durP1;ratioP1;P1;durP2;ratioP2;P2;SDS_P1;SDS_P2;PMS_P1;PMS_P2;Temp;Humidity;BMP_temperature;BMP_pressure;BME280_temperature;BME280_humidity;BME280_pressure;Samples;Min_cycle;Max_cycle;Signal;HPM_P1;HPM_P2
2023/07/30 00:00:25;;;;;;;15.77;5.57;;;24.00;99.90;;;;;;5055945;28;21009;-68
2023/07/30 00:02:51;;;;;;;14.53;4.87;;;24.00;99.90;;;;;;5058947;28;20209;-68
2023/07/30 00:05:18;;;;;;;10.07;4.83;;;24.10;99.90;;;;;;5071528;28;20215;-68
2023/07/30 00:07:44;;;;;;;13.70;4.97;;;24.10;99.90;;;;;;5057397;28;20226;-67
2023/07/30 00:10:10;;;;;;;13.40;6.07;;;24.10;99.90;;;;;;5051535;28;20191;-68
2023/07/30 00:12:37;;;;;;;9.73;4.43;;;24.10;99.90;;;;;;5050055;28;20187;-68
2023/07/30 00:15:04;;;;;;;10.00;4.87;;;24.10;99.90;;;;;;5041063;28;20734;-68
2023/07/30 00:17:30;;;;;;;12.60;5.30;;;24.00;99.90;;;;;;5057969;28;20732;-68
2023/07/30 00:19:57;;;;;;;10.50;4.90;;;24.00;99.90;;;;;;5054387;28;20447;-67
2023/07/30 00:22:23;;;;;;;12.33;4.60;;;24.00;99.90;;;;;;5050508;28;20201;-67
2023/07/30 00:24:49;;;;;;;8.87;4.70;;;24.00;99.90;;;;;;5057250;28;20884;-67
2023/07/30 00:27:15;;;;;;;8.47;4.30;;;24.00;99.90;;;;;;5053179;28;20504;-67
2023/07/30 00:29:41;;;;;;;11.05;4.85;;;24.00;99.90;;;;;;5052241;28;20417;-68
2023/07/30 00:32:08;;;;;;;10.18;4.85;;;23.90;99.90;;;;;;5052339;28;20419;-68
2023/07/30 00:34:34;;;;;;;9.73;4.72;;;23.90;99.90;;;;;;5058746;28;20187;-67
2023/07/30 00:37:00;;;;;;;9.27;5.20;;;23.80;99.90;;;;;;5055447;28;20198;-67
2023/07/30 00:39:26;;;;;;;10.10;4.77;;;23.80;99.90;;;;;;5049880;28;20605;-68
2023/07/30 00:41:53;;;;;;;9.80;4.85;;;23.80;99.90;;;;;;5070565;28;20667;-68
2023/07/30 00:44:19;;;;;;;15.03;4.90;;;23.80;99.90;;;;;;5056762;28;20210;-68
2023/07/30 00:46:45;;;;;;;9.83;4.90;;;23.80;99.90;;;;;;5054429;28;20234;-68
2023/07/30 00:49:12;;;;;;;12.73;4.67;;;23.80;99.90;;;;;;5055387;28;20692;-68
2023/07/30 00:51:38;;;;;;;13.03;4.77;;;23.80;99.90;;;;;;5057624;28;20209;-68
2023/07/30 00:54:04;;;;;;;10.00;4.73;;;23.60;99.90;;;;;;5057402;28;20638;-68
2023/07/30 00:56:31;;;;;;;8.67;4.40;;;23.60;99.90;;;;;;5056440;28;20276;-68
2023/07/30 00:58:57;;;;;;;10.13;4.17;;;23.50;99.60;;;;;;5059046;28;20297;-68
2023/07/30 01:01:24;;;;;;;9.33;4.60;;;23.50;99.00;;;;;;5052739;28;20179;-68
2023/07/30 01:03:50;;;;;;;10.40;4.67;;;23.40;98.80;;;;;;5054818;28;20198;-68
2023/07/30 01:06:17;;;;;;;11.63;4.87;;;23.40;98.80;;;;;;5070649;28;20194;-67
2023/07/30 01:08:44;;;;;;;14.43;4.47;;;23.30;98.90;;;;;;5060744;28;20187;-67
2023/07/30 01:11:11;;;;;;;10.87;4.63;;;23.20;99.10;;;;;;5058840;28;20283;-68
2023/07/30 01:13:39;;;;;;;8.90;4.30;;;23.20;98.90;;;;;;5043899;28;20190;-68
2023/07/30 01:16:06;;;;;;;10.60;4.63;;;23.20;99.10;;;;;;5052188;28;20291;-68
2023/07/30 01:18:32;;;;;;;11.63;4.40;;;23.20;99.70;;;;;;5054512;28;20191;-68
2023/07/30 01:21:00;;;;;;;9.87;4.60;;;23.20;99.90;;;;;;5059729;28;20190;-67
2023/07/30 01:23:26;;;;;;;12.23;4.87;;;23.20;99.90;;;;;;5062151;28;21758;-67
2023/07/30 01:26:08;;;;;;;8.33;4.77;;;23.20;99.90;;;;;;5055502;28;20768;-68
2023/07/30 01:28:51;;;;;;;11.40;4.70;;;23.20;99.90;;;;;;5061492;28;20218;-67
2023/07/30 01:31:20;;;;;;;11.57;5.10;;;23.20;99.90;;;;;;5058495;28;20608;-68
2023/07/30 01:33:52;;;;;;;10.27;5.00;;;23.20;99.90;;;;;;5071925;28;20183;-68
2023/07/30 01:36:20;;;;;;;13.70;4.80;;;23.20;99.90;;;;;;5044446;28;20188;-68
2023/07/30 01:38:50;;;;;;;12.47;4.73;;;23.10;99.90;;;;;;5059850;28;20187;-68
2023/07/30 01:41:16;;;;;;;11.87;5.07;;;23.10;99.90;;;;;;5059178;28;20222;-67
2023/07/30 01:43:42;;;;;;;14.67;4.60;;;23.10;99.90;;;;;;5057000;28;20202;-68
2023/07/30 01:46:08;;;;;;;7.73;4.70;;;23.10;99.90;;;;;;5076113;28;20206;-69
2023/07/30 01:48:35;;;;;;;16.53;5.27;;;23.10;99.90;;;;;;5059168;28;20188;-69
2023/07/30 01:51:01;;;;;;;11.87;4.90;;;23.10;99.90;;;;;;5054054;28;20626;-69
2023/07/30 01:53:27;;;;;;;13.30;5.50;;;23.10;99.90;;;;;;5060314;28;20183;-69
2023/07/30 01:55:55;;;;;;;17.27;4.60;;;23.20;99.90;;;;;;5061654;28;20249;-69
2023/07/30 01:58:21;;;;;;;8.03;4.50;;;23.20;99.90;;;;;;5060545;28;20785;-69
2023/07/30 02:00:47;;;;;;;14.57;4.73;;;23.20;99.90;;;;;;5063466;28;20198;-71
2023/07/30 02:03:14;;;;;;;9.93;4.67;;;23.20;99.90;;;;;;5055606;28;20310;-71
2023/07/30 02:05:40;;;;;;;12.83;5.07;;;23.10;99.90;;;;;;5056220;28;20610;-71
2023/07/30 02:08:06;;;;;;;9.60;4.67;;;23.10;99.90;;;;;;5059715;28;20182;-71
2023/07/30 02:10:32;;;;;;;10.90;4.77;;;23.10;99.90;;;;;;5062670;28;20324;-71
2023/07/30 02:12:59;;;;;;;11.83;4.27;;;23.10;99.90;;;;;;5057529;28;20191;-71
2023/07/30 02:15:25;;;;;;;10.83;4.93;;;23.10;99.90;;;;;;5050185;28;20431;-71
2023/07/30 02:17:51;;;;;;;13.20;4.70;;;23.10;99.60;;;;;;5057002;28;20345;-71
2023/07/30 02:20:17;;;;;;;9.70;4.23;;;23.10;97.80;;;;;;5056302;28;20193;-71
2023/07/30 02:22:44;;;;;;;8.80;4.27;;;23.10;97.60;;;;;;5062487;28;20419;-71
2023/07/30 02:25:10;;;;;;;12.17;5.27;;;23.00;97.30;;;;;;5057243;28;20676;-71
2023/07/30 02:27:36;;;;;;;9.23;4.80;;;23.10;97.30;;;;;;5061554;28;20541;-71
2023/07/30 02:30:04;;;;;;;12.63;4.87;;;23.10;97.30;;;;;;5055946;28;20325;-71
2023/07/30 02:32:30;;;;;;;12.93;4.73;;;23.10;97.60;;;;;;5058288;28;20199;-71
2023/07/30 02:34:56;;;;;;;10.90;4.90;;;23.10;98.50;;;;;;5062859;28;20193;-71
2023/07/30 02:37:22;;;;;;;11.87;4.43;;;23.20;99.70;;;;;;5061605;28;20190;-70
2023/07/30 02:39:48;;;;;;;13.33;4.87;;;23.10;99.90;;;;;;5057697;28;20196;-70
2023/07/30 02:42:15;;;;;;;11.90;4.90;;;23.10;99.90;;;;;;5049329;28;20214;-70
2023/07/30 02:44:41;;;;;;;13.47;5.00;;;23.00;99.90;;;;;;5056681;28;20276;-70
2023/07/30 02:47:07;;;;;;;8.50;4.23;;;22.90;99.90;;;;;;5062702;28;20292;-70
2023/07/30 02:49:33;;;;;;;12.37;4.40;;;23.00;99.90;;;;;;5057433;28;20190;-68
2023/07/30 02:51:59;;;;;;;11.27;4.90;;;22.90;99.90;;;;;;5054651;28;20194;-70
2023/07/30 02:54:25;;;;;;;13.93;4.17;;;23.00;99.90;;;;;;5049794;28;20649;-70
2023/07/30 02:56:52;;;;;;;10.80;4.10;;;23.00;99.90;;;;;;5064911;28;20187;-70
2023/07/30 02:59:18;;;;;;;11.60;4.80;;;23.10;99.90;;;;;;5061052;28;20274;-71
2023/07/30 03:01:44;;;;;;;7.73;4.50;;;23.10;99.70;;;;;;5059131;28;20360;-71
2023/07/30 03:04:11;;;;;;;12.23;5.23;;;23.10;98.90;;;;;;5055935;28;20263;-70
2023/07/30 03:06:37;;;;;;;9.70;4.50;;;23.00;98.20;;;;;;5059184;28;20197;-70
2023/07/30 03:09:03;;;;;;;9.63;4.37;;;23.00;97.90;;;;;;5054967;28;20274;-70
2023/07/30 03:11:29;;;;;;;11.30;4.47;;;23.00;97.20;;;;;;5056878;28;20171;-71
2023/07/30 03:13:55;;;;;;;14.23;4.63;;;22.90;96.40;;;;;;5054020;28;21025;-71
2023/07/30 03:16:21;;;;;;;13.77;4.83;;;23.00;95.40;;;;;;5055467;28;20190;-71
2023/07/30 03:18:48;;;;;;;12.47;4.27;;;22.90;94.00;;;;;;5042959;28;20547;-71
2023/07/30 03:21:14;;;;;;;11.50;4.50;;;22.90;94.30;;;;;;5057917;28;20712;-70
2023/07/30 03:23:42;;;;;;;13.20;4.10;;;22.90;94.10;;;;;;5058225;28;20197;-71
2023/07/30 03:26:08;;;;;;;9.67;3.90;;;22.70;93.80;;;;;;5057877;28;20237;-69
2023/07/30 03:28:35;;;;;;;13.80;4.53;;;22.60;94.20;;;;;;5060389;28;20664;-71
2023/07/30 03:31:01;;;;;;;12.07;4.73;;;22.60;94.20;;;;;;5056980;28;20219;-70
2023/07/30 03:33:27;;;;;;;13.87;4.63;;;22.60;94.50;;;;;;5057003;28;20195;-70
2023/07/30 03:35:54;;;;;;;12.33;4.63;;;22.60;94.60;;;;;;5054481;28;20194;-70
2023/07/30 03:38:20;;;;;;;13.30;4.87;;;22.70;95.40;;;;;;5055569;28;20249;-71
2023/07/30 03:40:46;;;;;;;18.67;4.80;;;22.70;96.60;;;;;;5055118;28;20199;-71
2023/07/30 03:43:13;;;;;;;10.60;4.50;;;22.80;97.80;;;;;;5056972;28;20276;-70
2023/07/30 03:45:39;;;;;;;12.03;4.80;;;22.90;98.20;;;;;;5056886;28;20223;-68
2023/07/30 03:48:05;;;;;;;12.33;4.77;;;23.00;99.00;;;;;;5054986;28;20198;-70
2023/07/30 03:50:32;;;;;;;17.63;4.70;;;23.10;99.80;;;;;;5057591;28;20195;-71
2023/07/30 03:52:58;;;;;;;13.53;4.67;;;23.20;99.90;;;;;;5058939;28;20578;-70
2023/07/30 03:55:24;;;;;;;15.93;5.23;;;23.20;99.90;;;;;;5055968;28;20178;-70
2023/07/30 03:57:51;;;;;;;11.63;4.60;;;23.20;99.90;;;;;;5052294;28;21006;-70
2023/07/30 04:00:17;;;;;;;9.13;4.85;;;23.30;99.90;;;;;;5052260;28;20449;-70
2023/07/30 04:02:43;;;;;;;9.67;5.00;;;23.30;99.90;;;;;;5058073;28;20206;-70
2023/07/30 04:05:09;;;;;;;12.37;4.80;;;23.40;99.90;;;;;;5060370;28;20554;-70
2023/07/30 04:07:35;;;;;;;7.80;4.33;;;23.40;99.90;;;;;;5059671;28;20693;-70
2023/07/30 04:10:01;;;;;;;14.03;4.77;;;23.40;99.90;;;;;;5048587;28;20187;-70
2023/07/30 04:12:28;;;;;;;10.53;4.53;;;23.40;99.90;;;;;;5058339;28;20187;-71
2023/07/30 04:14:54;;;;;;;14.70;4.60;;;23.40;99.90;;;;;;5057107;28;20747;-70
2023/07/30 04:17:20;;;;;;;11.97;4.23;;;23.40;99.90;;;;;;5059318;28;20175;-70
2023/07/30 04:19:46;;;;;;;11.53;4.60;;;23.40;99.90;;;;;;5059781;28;20596;-70
2023/07/30 04:22:13;;;;;;;11.27;4.60;;;23.40;99.90;;;;;;5056544;28;20198;-70
2023/07/30 04:24:39;;;;;;;11.77;4.70;;;23.40;99.90;;;;;;5074178;28;20230;-70
2023/07/30 04:27:05;;;;;;;11.10;4.50;;;23.40;99.90;;;;;;5060197;28;20720;-70
2023/07/30 04:29:32;;;;;;;13.73;5.10;;;23.40;99.90;;;;;;5057702;28;20747;-71
2023/07/30 04:31:59;;;;;;;15.50;5.73;;;23.50;99.90;;;;;;5057616;28;20225;-71
2023/07/30 04:34:25;;;;;;;7.90;4.63;;;23.50;99.90;;;;;;5054826;28;20214;-71
2023/07/30 04:36:51;;;;;;;10.63;4.63;;;23.60;99.90;;;;;;5066899;28;20245;-71
2023/07/30 04:39:18;;;;;;;12.67;4.67;;;23.60;99.90;;;;;;5056150;28;20422;-71
2023/07/30 04:41:44;;;;;;;10.88;4.85;;;23.70;99.90;;;;;;5055025;28;21010;-71
2023/07/30 04:44:10;;;;;;;8.05;4.38;;;23.80;99.90;;;;;;5059579;28;20483;-71
2023/07/30 04:46:36;;;;;;;11.15;4.85;;;23.90;99.90;;;;;;5051532;28;21001;-71
2023/07/30 04:49:04;;;;;;;11.50;4.75;;;24.00;99.90;;;;;;5057605;28;20499;-71
2023/07/30 04:51:30;;;;;;;15.43;5.40;;;24.10;99.90;;;;;;5059156;28;20229;-71
2023/07/30 04:53:56;;;;;;;18.15;6.03;;;24.20;99.90;;;;;;5044600;28;20846;-71
2023/07/30 04:56:22;;;;;;;8.88;4.82;;;24.20;99.90;;;;;;5059364;28;20198;-70
2023/07/30 04:58:49;;;;;;;10.73;5.22;;;24.30;99.90;;;;;;5056143;28;20189;-70
2023/07/30 05:01:15;;;;;;;15.48;5.15;;;24.30;99.90;;;;;;5056532;28;20274;-70
2023/07/30 05:03:41;;;;;;;18.23;4.93;;;24.40;99.90;;;;;;5051788;28;20554;-69
2023/07/30 05:06:07;;;;;;;15.43;4.80;;;24.50;99.90;;;;;;5056858;28;20215;-70
2023/07/30 05:08:33;;;;;;;14.02;4.78;;;24.50;99.90;;;;;;5059145;28;20183;-70
2023/07/30 05:11:00;;;;;;;12.90;5.20;;;24.60;99.90;;;;;;5059231;28;20178;-70
2023/07/30 05:13:26;;;;;;;11.63;5.10;;;24.60;99.90;;;;;;5056337;28;20696;-70
2023/07/30 05:15:52;;;;;;;11.97;4.97;;;24.70;99.90;;;;;;5054324;28;20179;-70
2023/07/30 05:18:18;;;;;;;17.43;5.30;;;24.80;99.90;;;;;;5059277;28;20182;-71
2023/07/30 05:20:46;;;;;;;14.50;4.70;;;24.80;99.90;;;;;;5056622;28;20195;-71
2023/07/30 05:23:13;;;;;;;12.50;4.97;;;24.90;99.90;;;;;;5057770;28;20182;-71
2023/07/30 05:25:39;;;;;;;16.50;5.50;;;24.90;99.90;;;;;;5050092;28;20207;-70
2023/07/30 05:28:06;;;;;;;12.07;4.60;;;25.00;99.90;;;;;;5059931;28;20240;-71
2023/07/30 05:30:32;;;;;;;10.87;4.70;;;25.00;99.90;;;;;;5054675;28;20566;-70
2023/07/30 05:32:58;;;;;;;15.35;5.07;;;25.00;99.90;;;;;;5055478;28;21132;-71
2023/07/30 05:35:25;;;;;;;13.53;4.57;;;25.10;99.90;;;;;;5051778;28;20559;-70
2023/07/30 05:37:51;;;;;;;14.57;5.23;;;25.10;99.90;;;;;;5052740;28;20320;-71
2023/07/30 05:40:17;;;;;;;13.73;5.00;;;25.10;99.90;;;;;;5054662;28;20271;-71
2023/07/30 05:42:43;;;;;;;13.20;4.77;;;25.20;99.90;;;;;;5050867;28;20653;-71
2023/07/30 05:45:10;;;;;;;9.10;4.55;;;25.20;99.90;;;;;;5058377;28;20222;-71
2023/07/30 05:47:37;;;;;;;17.00;4.97;;;25.30;99.90;;;;;;5055811;28;20849;-71
2023/07/30 05:50:04;;;;;;;10.20;4.90;;;25.30;99.90;;;;;;5057653;28;20175;-70
2023/07/30 05:52:30;;;;;;;14.77;5.47;;;25.50;99.90;;;;;;5068172;28;20195;-70
2023/07/30 05:54:56;;;;;;;11.73;4.60;;;25.60;99.90;;;;;;5053083;28;20777;-70
2023/07/30 05:57:22;;;;;;;13.70;4.90;;;25.60;99.90;;;;;;5056965;28;20255;-70
2023/07/30 05:59:48;;;;;;;14.65;4.88;;;25.70;99.90;;;;;;5058224;28;20787;-69
2023/07/30 06:02:15;;;;;;;15.00;5.35;;;25.80;99.90;;;;;;5053458;28;20192;-70
2023/07/30 06:04:41;;;;;;;11.63;4.55;;;25.90;99.90;;;;;;5050689;28;20207;-69
2023/07/30 06:07:08;;;;;;;17.50;4.55;;;25.90;99.90;;;;;;5060612;28;20183;-69
2023/07/30 06:09:34;;;;;;;10.60;4.90;;;26.10;99.90;;;;;;5062928;28;20175;-69
2023/07/30 06:12:00;;;;;;;14.85;4.75;;;26.10;99.90;;;;;;5057139;28;20198;-70
2023/07/30 06:14:27;;;;;;;16.05;4.85;;;26.30;99.90;;;;;;5060986;28;20218;-70
2023/07/30 06:16:54;;;;;;;20.23;4.90;;;26.30;99.90;;;;;;5063083;28;20337;-70
2023/07/30 06:19:20;;;;;;;13.77;4.95;;;26.30;99.90;;;;;;5055229;28;20226;-70
2023/07/30 06:21:47;;;;;;;12.90;5.13;;;26.40;99.90;;;;;;5055681;28;20196;-71
2023/07/30 06:24:13;;;;;;;10.77;4.40;;;26.40;99.80;;;;;;5058449;28;20650;-70
2023/07/30 06:26:39;;;;;;;13.48;4.57;;;26.50;99.80;;;;;;5057616;28;20228;-70
2023/07/30 06:29:06;;;;;;;9.98;4.82;;;26.60;99.60;;;;;;5059341;28;20218;-70
2023/07/30 06:31:32;;;;;;;11.95;5.20;;;26.70;99.70;;;;;;5060733;28;20632;-70
2023/07/30 06:34:00;;;;;;;13.73;4.60;;;26.80;99.90;;;;;;5057938;28;20879;-70
2023/07/30 06:36:26;;;;;;;15.43;4.78;;;26.90;99.90;;;;;;5059748;28;20187;-70
2023/07/30 06:38:53;;;;;;;16.50;4.40;;;26.90;99.90;;;;;;5054223;28;20198;-70
2023/07/30 06:41:19;;;;;;;13.77;5.00;;;27.10;99.90;;;;;;5052882;28;20191;-70
2023/07/30 06:43:45;;;;;;;16.35;5.00;;;27.20;99.90;;;;;;5059379;28;20589;-70
2023/07/30 06:46:11;;;;;;;18.20;4.85;;;27.30;99.90;;;;;;5058056;28;20246;-70
2023/07/30 06:48:38;;;;;;;11.18;4.70;;;27.40;99.90;;;;;;5059330;28;20213;-70
2023/07/30 06:51:09;;;;;;;14.20;4.78;;;27.50;99.90;;;;;;5056988;28;20248;-70
2023/07/30 06:53:35;;;;;;;9.50;4.75;;;27.60;99.90;;;;;;5061930;28;20240;-70
2023/07/30 06:56:01;;;;;;;14.77;4.82;;;27.70;99.90;;;;;;5060225;28;20227;-69
2023/07/30 06:58:28;;;;;;;11.55;4.32;;;27.80;99.90;;;;;;5048973;28;20195;-70
2023/07/30 07:00:54;;;;;;;13.15;4.60;;;28.00;99.90;;;;;;5058455;28;20308;-69
2023/07/30 07:03:20;;;;;;;16.88;5.07;;;28.10;99.90;;;;;;5045675;28;20227;-70
2023/07/30 07:05:56;;;;;;;12.43;4.93;;;28.10;99.90;;;;;;5061384;28;20298;-70
2023/07/30 07:08:23;;;;;;;12.65;5.45;;;28.20;99.90;;;;;;5056234;28;20662;-69
2023/07/30 07:10:50;;;;;;;12.65;4.78;;;28.30;99.90;;;;;;5056863;28;20195;-70
2023/07/30 07:13:16;;;;;;;11.77;4.85;;;28.40;99.90;;;;;;5078682;28;20183;-70
2023/07/30 07:15:44;;;;;;;13.85;5.38;;;28.40;99.90;;;;;;5062432;28;20205;-70
2023/07/30 07:18:11;;;;;;;13.35;4.97;;;28.40;99.90;;;;;;5058543;28;20183;-70
2023/07/30 07:20:38;;;;;;;9.77;4.82;;;28.50;99.90;;;;;;5055551;28;20204;-70
2023/07/30 07:23:04;;;;;;;15.50;4.88;;;28.50;99.90;;;;;;5052753;28;20793;-70
2023/07/30 07:25:31;;;;;;;16.77;4.78;;;28.60;99.90;;;;;;5057565;28;20305;-70
2023/07/30 07:27:57;;;;;;;9.75;4.15;;;28.70;99.90;;;;;;5062579;28;20197;-70
2023/07/30 07:30:23;;;;;;;11.60;4.80;;;28.80;99.90;;;;;;5056414;28;20199;-71
2023/07/30 07:32:53;;;;;;;13.60;5.03;;;29.00;99.90;;;;;;5073203;28;20290;-70
2023/07/30 07:35:22;;;;;;;12.38;4.85;;;29.10;99.90;;;;;;5058507;28;20194;-69
2023/07/30 07:37:49;;;;;;;8.55;4.53;;;29.10;99.90;;;;;;5057735;28;20771;-69
2023/07/30 07:40:16;;;;;;;17.35;5.07;;;29.20;99.90;;;;;;5061352;28;20244;-70
2023/07/30 07:42:42;;;;;;;11.45;4.47;;;29.30;99.90;;;;;;5058122;28;20195;-71
2023/07/30 07:45:09;;;;;;;13.77;4.45;;;29.40;99.90;;;;;;5059288;28;20252;-71
2023/07/30 07:47:35;;;;;;;10.90;4.05;;;29.40;99.90;;;;;;5087968;28;20266;-71
2023/07/30 07:50:03;;;;;;;12.15;3.88;;;29.50;99.90;;;;;;5056672;28;20190;-71
2023/07/30 07:52:29;;;;;;;12.93;4.90;;;29.50;99.90;;;;;;5054714;28;20896;-71
2023/07/30 07:54:55;;;;;;;11.38;4.38;;;29.60;99.90;;;;;;5055704;28;20213;-71
2023/07/30 07:57:21;;;;;;;8.43;3.88;;;29.80;99.90;;;;;;5065782;28;20194;-70
2023/07/30 07:59:48;;;;;;;15.00;4.82;;;29.80;99.90;;;;;;5041920;28;20183;-71
2023/07/30 08:02:14;;;;;;;10.68;4.72;;;29.90;99.90;;;;;;5052948;28;20191;-71
2023/07/30 08:04:41;;;;;;;10.20;4.25;;;29.90;99.90;;;;;;5073712;28;20598;-71
2023/07/30 08:07:07;;;;;;;11.10;4.10;;;30.00;99.90;;;;;;5071566;28;20179;-70
2023/07/30 08:09:34;;;;;;;15.43;4.20;;;30.00;99.90;;;;;;5039247;28;20195;-71
2023/07/30 08:12:03;;;;;;;15.88;4.80;;;30.00;99.90;;;;;;5055910;28;20202;-71
2023/07/30 08:14:31;;;;;;;9.32;4.00;;;30.00;99.90;;;;;;5058573;28;20190;-71
2023/07/30 08:16:57;;;;;;;12.05;4.35;;;30.10;99.90;;;;;;5057023;28;20182;-70
2023/07/30 08:19:23;;;;;;;12.07;4.55;;;30.20;99.90;;;;;;5056652;28;20205;-71
2023/07/30 08:21:49;;;;;;;15.70;4.45;;;30.20;99.90;;;;;;5053728;28;20187;-71
2023/07/30 08:24:16;;;;;;;11.85;4.68;;;30.20;99.90;;;;;;5054593;28;20844;-71
2023/07/30 08:26:42;;;;;;;15.82;4.53;;;30.30;99.90;;;;;;5056648;28;20187;-71
2023/07/30 08:29:10;;;;;;;11.60;4.50;;;30.30;99.90;;;;;;5057326;28;20197;-71
2023/07/30 08:31:36;;;;;;;10.52;4.35;;;30.30;99.90;;;;;;5051587;28;20198;-70
2023/07/30 08:34:02;;;;;;;8.00;4.28;;;30.40;99.90;;;;;;5067819;28;20245;-70
2023/07/30 08:36:28;;;;;;;16.35;5.38;;;30.50;99.90;;;;;;5044196;28;20653;-70
2023/07/30 08:38:55;;;;;;;11.85;4.10;;;30.60;99.90;;;;;;5056322;28;20222;-71
2023/07/30 08:41:21;;;;;;;10.73;4.32;;;30.60;99.90;;;;;;5049325;28;20487;-71
2023/07/30 08:43:48;;;;;;;13.55;4.50;;;30.70;99.90;;;;;;5053793;28;20272;-71
2023/07/30 08:46:16;;;;;;;13.93;4.40;;;30.80;99.90;;;;;;5052056;28;20662;-70
2023/07/30 08:48:42;;;;;;;16.20;4.47;;;30.90;99.90;;;;;;5053145;28;20221;-70
2023/07/30 08:51:11;;;;;;;13.10;4.70;;;31.00;99.90;;;;;;5053730;28;20222;-70
2023/07/30 08:53:37;;;;;;;12.80;4.10;;;31.10;99.90;;;;;;5053122;28;20658;-70
2023/07/30 08:56:07;;;;;;;11.60;4.20;;;31.00;99.90;;;;;;5056585;28;20554;-70
2023/07/30 08:58:34;;;;;;;13.82;4.40;;;31.00;99.90;;;;;;5057592;28;20186;-71
2023/07/30 09:01:09;;;;;;;17.35;4.50;;;31.20;99.90;;;;;;5051150;28;20217;-70
2023/07/30 09:03:40;;;;;;;14.80;4.75;;;31.40;99.90;;;;;;5057265;28;20652;-70
2023/07/30 09:06:07;;;;;;;14.48;4.05;;;31.30;99.90;;;;;;5052937;28;20340;-70
2023/07/30 09:08:34;;;;;;;11.25;3.97;;;31.30;99.90;;;;;;5054039;28;20259;-70
2023/07/30 09:11:11;;;;;;;13.05;3.83;;;31.30;99.90;;;;;;5052108;28;20186;-70
2023/07/30 09:13:39;;;;;;;9.88;3.67;;;31.30;99.90;;;;;;5053156;28;20767;-71
2023/07/30 09:16:14;;;;;;;9.65;3.80;;;31.40;99.90;;;;;;5054201;28;20266;-71
2023/07/30 09:18:42;;;;;;;10.43;3.60;;;31.40;99.90;;;;;;5049766;28;20573;-70
2023/07/30 09:21:11;;;;;;;15.57;4.10;;;31.40;99.90;;;;;;5050618;28;20186;-70
2023/07/30 09:23:46;;;;;;;10.68;3.35;;;31.50;99.90;;;;;;5055674;28;20201;-70
2023/07/30 09:26:14;;;;;;;14.05;3.78;;;31.60;99.90;;;;;;5054245;28;20207;-70
2023/07/30 09:28:40;;;;;;;11.40;4.10;;;31.80;99.90;;;;;;5069091;28;20274;-70
2023/07/30 09:31:11;;;;;;;14.98;4.00;;;31.80;99.90;;;;;;5055911;28;20546;-70
2023/07/30 09:33:42;;;;;;;12.13;3.67;;;31.90;99.90;;;;;;5053872;28;20187;-70
2023/07/30 09:36:09;;;;;;;10.82;4.40;;;32.00;99.90;;;;;;5056464;28;20187;-71
2023/07/30 09:38:46;;;;;;;10.63;3.53;;;32.10;99.90;;;;;;5071260;28;20191;-71
2023/07/30 09:41:14;;;;;;;9.20;3.33;;;32.30;99.90;;;;;;5051516;28;20191;-71
2023/07/30 09:43:41;;;;;;;11.57;3.70;;;32.40;99.90;;;;;;5059752;28;20693;-71
2023/07/30 09:46:08;;;;;;;9.77;3.65;;;32.30;99.90;;;;;;5059325;28;20650;-71
2023/07/30 09:48:35;;;;;;;14.38;4.03;;;32.40;99.90;;;;;;5057647;28;20894;-70
2023/07/30 09:51:03;;;;;;;10.93;3.78;;;32.50;99.90;;;;;;5051925;28;20191;-70
2023/07/30 09:53:36;;;;;;;14.02;4.45;;;32.60;99.90;;;;;;5053854;28;20175;-70
2023/07/30 09:56:05;;;;;;;9.68;3.47;;;32.60;99.90;;;;;;5057298;28;20304;-70
2023/07/30 09:58:32;;;;;;;9.02;3.47;;;32.60;99.90;;;;;;5057108;28;20286;-70
2023/07/30 10:01:04;;;;;;;14.77;4.07;;;32.70;99.90;;;;;;5046008;28;20186;-70
2023/07/30 10:03:34;;;;;;;11.88;3.53;;;32.90;99.90;;;;;;5072536;28;20902;-70
2023/07/30 10:06:07;;;;;;;27.30;4.85;;;33.10;99.90;;;;;;5061447;28;20211;-70
2023/07/30 10:08:39;;;;;;;13.32;3.67;;;33.30;99.90;;;;;;5058732;28;20191;-71
2023/07/30 10:11:10;;;;;;;15.32;4.00;;;33.30;99.90;;;;;;5062437;28;20186;-70
2023/07/30 10:13:41;;;;;;;9.95;3.80;;;33.30;99.90;;;;;;5058341;28;20711;-70
2023/07/30 10:16:11;;;;;;;13.35;3.92;;;33.30;99.90;;;;;;5058641;28;20332;-70
2023/07/30 10:18:42;;;;;;;10.35;3.42;;;33.30;99.90;;;;;;5057661;28;20535;-70
2023/07/30 10:21:21;;;;;;;8.90;3.30;;;33.40;99.90;;;;;;5060926;28;20654;-70
2023/07/30 10:23:59;;;;;;;13.90;4.38;;;33.70;99.90;;;;;;5064650;28;20187;-70
2023/07/30 10:26:31;;;;;;;10.45;3.58;;;33.80;99.90;;;;;;5060123;28;20732;-71
2023/07/30 10:29:20;;;;;;;13.38;3.65;;;33.60;99.90;;;;;;5060885;28;20522;-70
2023/07/30 10:31:55;;;;;;;7.30;3.17;;;33.50;99.90;;;;;;5063976;28;20291;-70
2023/07/30 10:34:26;;;;;;;10.18;3.40;;;33.50;99.90;;;;;;5060065;28;20206;-70
2023/07/30 10:36:55;;;;;;;10.93;4.15;;;33.70;99.90;;;;;;5054637;28;20193;-71
2023/07/30 10:39:29;;;;;;;7.88;3.17;;;33.50;99.90;;;;;;5058881;28;20707;-70
2023/07/30 10:41:57;;;;;;;9.00;3.22;;;33.40;99.90;;;;;;5056077;28;20187;-70
2023/07/30 10:44:33;;;;;;;9.65;3.28;;;33.30;99.90;;;;;;5059395;28;20188;-70
2023/07/30 10:47:03;;;;;;;9.27;3.28;;;33.20;99.90;;;;;;5056225;28;20186;-70
2023/07/30 10:49:36;;;;;;;10.38;3.80;;;33.10;99.90;;;;;;5059433;28;20191;-70
2023/07/30 10:52:04;;;;;;;13.50;3.72;;;33.10;99.90;;;;;;5057077;28;20184;-70
2023/07/30 10:54:37;;;;;;;15.07;3.65;;;33.10;99.90;;;;;;5047166;28;20484;-70
2023/07/30 10:57:04;;;;;;;8.77;3.42;;;33.10;99.90;;;;;;5051433;28;20984;-71
2023/07/30 10:59:38;;;;;;;13.60;3.20;;;33.00;99.90;;;;;;5063847;28;20187;-71
2023/07/30 11:02:08;;;;;;;10.20;3.30;;;33.10;99.90;;;;;;5059746;28;20646;-70
2023/07/30 11:04:35;;;;;;;12.45;4.00;;;33.10;99.90;;;;;;5059734;28;20207;-70
2023/07/30 11:07:03;;;;;;;13.15;3.60;;;33.00;99.90;;;;;;5048690;28;20180;-71
2023/07/30 11:09:29;;;;;;;12.27;3.47;;;32.90;99.90;;;;;;5062912;28;20735;-71
2023/07/30 11:11:56;;;;;;;8.50;3.10;;;32.80;99.90;;;;;;5059455;28;20179;-70
2023/07/30 11:14:28;;;;;;;7.68;3.28;;;32.80;99.90;;;;;;5061468;28;20230;-70
2023/07/30 11:17:00;;;;;;;19.70;3.67;;;32.70;99.90;;;;;;5056637;28;20196;-71
2023/07/30 11:19:30;;;;;;;12.05;3.50;;;32.60;99.90;;;;;;5056873;28;20183;-71
2023/07/30 11:21:57;;;;;;;13.60;4.07;;;32.60;99.90;;;;;;5062231;28;20240;-71
2023/07/30 11:24:44;;;;;;;11.40;3.90;;;32.60;99.90;;;;;;5056430;28;20732;-70
2023/07/30 11:27:10;;;;;;;14.25;4.25;;;32.60;99.90;;;;;;5056981;28;20179;-70
2023/07/30 11:29:36;;;;;;;12.95;3.97;;;32.60;99.90;;;;;;5062993;28;20932;-70
2023/07/30 11:32:03;;;;;;;9.15;3.25;;;32.60;99.90;;;;;;5060988;28;20194;-71
2023/07/30 11:34:30;;;;;;;13.80;3.55;;;32.60;99.90;;;;;;5054729;28;20716;-71
2023/07/30 11:36:58;;;;;;;13.10;3.47;;;32.50;99.90;;;;;;5058983;28;20430;-70
2023/07/30 11:39:25;;;;;;;10.25;3.92;;;32.60;99.90;;;;;;5061355;28;20649;-70
2023/07/30 11:41:51;;;;;;;11.90;3.75;;;32.60;99.90;;;;;;5060375;28;20183;-70
2023/07/30 11:44:40;;;;;;;11.38;3.97;;;32.60;99.90;;;;;;5056248;28;20198;-71
2023/07/30 11:47:09;;;;;;;9.68;3.75;;;32.60;99.90;;;;;;5058509;28;20629;-71
2023/07/30 11:49:35;;;;;;;13.18;3.90;;;32.60;99.90;;;;;;5060083;28;20178;-71
2023/07/30 11:52:10;;;;;;;11.77;3.53;;;32.60;99.90;;;;;;5058351;28;20191;-71
2023/07/30 11:54:37;;;;;;;11.52;3.75;;;32.60;99.90;;;;;;5058617;28;20197;-71
2023/07/30 11:57:03;;;;;;;11.55;3.40;;;32.70;99.90;;;;;;5060228;28;20191;-70
2023/07/30 11:59:32;;;;;;;11.40;3.60;;;32.70;99.90;;;;;;5060276;28;20536;-71
2023/07/30 12:01:58;;;;;;;13.88;4.00;;;32.60;99.90;;;;;;5053901;28;20222;-69
2023/07/30 12:04:25;;;;;;;13.50;3.95;;;32.70;99.90;;;;;;5059227;28;20186;-69
2023/07/30 12:06:55;;;;;;;11.07;3.15;;;32.70;99.90;;;;;;5051203;28;20191;-69
2023/07/30 12:09:25;;;;;;;10.52;3.30;;;32.60;99.90;;;;;;5057795;28;20175;-69
2023/07/30 12:12:02;;;;;;;11.88;3.88;;;32.60;99.90;;;;;;5056351;28;20429;-69
2023/07/30 12:14:53;;;;;;;11.43;3.90;;;32.70;99.90;;;;;;5050885;28;20184;-69
2023/07/30 12:17:20;;;;;;;13.63;3.53;;;32.80;99.90;;;;;;5056821;28;20767;-69
2023/07/30 12:19:47;;;;;;;14.88;4.00;;;32.80;99.90;;;;;;5061853;28;20280;-69
2023/07/30 12:22:15;;;;;;;8.52;3.15;;;32.90;99.90;;;;;;5061722;28;20266;-69
2023/07/30 12:24:41;;;;;;;9.02;3.47;;;32.90;99.90;;;;;;5053526;28;20268;-69
2023/07/30 12:27:08;;;;;;;10.73;3.55;;;32.90;99.90;;;;;;5057010;28;20670;-69
2023/07/30 12:29:34;;;;;;;9.07;3.85;;;32.90;99.90;;;;;;5056976;28;20175;-69
2023/07/30 12:32:00;;;;;;;7.47;3.67;;;32.90;99.90;;;;;;5072009;28;20191;-69
2023/07/30 12:34:26;;;;;;;16.58;3.47;;;32.90;99.90;;;;;;5051737;28;20472;-69
2023/07/30 12:36:53;;;;;;;12.13;3.80;;;32.90;99.90;;;;;;5061682;28;20542;-70
2023/07/30 12:39:19;;;;;;;10.57;3.53;;;33.00;99.90;;;;;;5057325;28;20179;-70